sensor_id;sensor_type;location;lat;lon;timestamp;pressure;altitude;pressure_sealevel;temperature;humidity
28312;BME280;15572;48.810;9.148;2023-08-20T00:00:05;98423.56;;;22.56;100.00
28312;BME280;15572;48.810;9.148;2023-08-20T00:05:03;98419.94;;;22.50;100.00
28312;BME280;15572;48.810;9.148;2023-08-20T00:10:01;98432.66;;;22.51;100.00
28312;BME280;15572;48.810;9.148;2023-08-20T00:15:00;98428.78;;;22.52;100.00
28312;BME280;15572;48.810;9.148;2023-08-20T00:20:01;98431.28;;;22.49;100.00
28312;BME280;15572;48.810;9.148;2023-08-20T00:25:05;98432.41;;;22.58;100.00
28312;BME280;15572;48.810;9.148;2023-08-20T00:30:03;98431.03;;;22.60;100.00
28312;BME280;15572;48.810;9.148;2023-08-20T00:35:00;98438.78;;;22.63;100.00
28312;BME280;15572;48.810;9.148;2023-08-20T00:39:57;98435.47;;;22.61;100.00
28312;BME280;15572;48.810;9.148;2023-08-20T00:44:55;98434.63;;;22.61;100.00
28312;BME280;15572;48.810;9.148;2023-08-20T00:49:52;98441.81;;;22.62;100.00
28312;BME280;15572;48.810;9.148;2023-08-20T00:54:50;98435.47;;;22.61;100.00
28312;BME280;15572;48.810;9.148;2023-08-20T00:59:47;98440.38;;;22.54;100.00
28312;BME280;15572;48.810;9.148;2023-08-20T01:04:47;98434.84;;;22.49;100.00
28312;BME280;15572;48.810;9.148;2023-08-20T01:09:50;98438.72;;;22.48;100.00
28312;BME280;15572;48.810;9.148;2023-08-20T01:14:46;98436.44;;;22.40;100.00
28312;BME280;15572;48.810;9.148;2023-08-20T01:19:43;98442.50;;;22.37;100.00
28312;BME280;15572;48.810;9.148;2023-08-20T01:24:47;98445.78;;;22.34;100.00
28312;BME280;15572;48.810;9.148;2023-08-20T01:29:52;98452.13;;;22.35;100.00
28312;BME280;15572;48.810;9.148;2023-08-20T01:34:49;98452.66;;;22.32;100.00
28312;BME280;15572;48.810;9.148;2023-08-20T01:39:46;98450.13;;;22.25;100.00
28312;BME280;15572;48.810;9.148;2023-08-20T01:44:43;98455.06;;;22.23;100.00
28312;BME280;15572;48.810;9.148;2023-08-20T01:49:41;98452.88;;;22.20;100.00
28312;BME280;15572;48.810;9.148;2023-08-20T01:54:37;98458.13;;;22.21;100.00
28312;BME280;15572;48.810;9.148;2023-08-20T01:59:34;98461.91;;;22.10;100.00
28312;BME280;15572;48.810;9.148;2023-08-20T02:10:24;98453.81;;;21.99;100.00
28312;BME280;15572;48.810;9.148;2023-08-20T02:15:20;98455.91;;;21.92;100.00
28312;BME280;15572;48.810;9.148;2023-08-20T02:20:17;98463.81;;;21.78;100.00
28312;BME280;15572;48.810;9.148;2023-08-20T02:25:13;98461.00;;;21.73;100.00
28312;BME280;15572;48.810;9.148;2023-08-20T02:30:12;98464.59;;;21.73;100.00
28312;BME280;15572;48.810;9.148;2023-08-20T02:35:09;98463.72;;;21.68;100.00
28312;BME280;15572;48.810;9.148;2023-08-20T02:40:09;98472.13;;;21.56;100.00
28312;BME280;15572;48.810;9.148;2023-08-20T02:45:07;98476.22;;;21.54;100.00
28312;BME280;15572;48.810;9.148;2023-08-20T02:50:07;98472.09;;;21.51;100.00
28312;BME280;15572;48.810;9.148;2023-08-20T02:55:03;98467.38;;;21.47;100.00
28312;BME280;15572;48.810;9.148;2023-08-20T03:00:00;98463.69;;;21.36;100.00
28312;BME280;15572;48.810;9.148;2023-08-20T03:04:57;98450.41;;;21.33;100.00
28312;BME280;15572;48.810;9.148;2023-08-20T03:09:55;98446.00;;;21.32;100.00
28312;BME280;15572;48.810;9.148;2023-08-20T03:14:52;98449.47;;;21.22;100.00
28312;BME280;15572;48.810;9.148;2023-08-20T03:19:55;98448.69;;;21.05;100.00
28312;BME280;15572;48.810;9.148;2023-08-20T03:24:52;98453.59;;;20.98;100.00
28312;BME280;15572;48.810;9.148;2023-08-20T03:29:51;98459.22;;;20.86;100.00
28312;BME280;15572;48.810;9.148;2023-08-20T03:34:48;98461.31;;;20.79;100.00
28312;BME280;15572;48.810;9.148;2023-08-20T03:39:44;98446.78;;;20.84;100.00
28312;BME280;15572;48.810;9.148;2023-08-20T03:44:41;98442.94;;;20.85;100.00
28312;BME280;15572;48.810;9.148;2023-08-20T03:49:39;98450.97;;;20.86;100.00
28312;BME280;15572;48.810;9.148;2023-08-20T03:54:35;98450.97;;;20.86;100.00
28312;BME280;15572;48.810;9.148;2023-08-20T03:59:32;98450.44;;;20.89;100.00
28312;BME280;15572;48.810;9.148;2023-08-20T04:04:29;98455.09;;;20.89;100.00
28312;BME280;15572;48.810;9.148;2023-08-20T04:09:27;98463.03;;;20.85;100.00
28312;BME280;15572;48.810;9.148;2023-08-20T04:14:23;98464.06;;;20.79;100.00
28312;BME280;15572;48.810;9.148;2023-08-20T04:19:20;98459.16;;;20.81;100.00
28312;BME280;15572;48.810;9.148;2023-08-20T04:24:16;98457.78;;;20.84;100.00
28312;BME280;15572;48.810;9.148;2023-08-20T04:29:14;98466.25;;;20.77;100.00
28312;BME280;15572;48.810;9.148;2023-08-20T04:34:10;98467.34;;;20.76;100.00
28312;BME280;15572;48.810;9.148;2023-08-20T04:39:07;98473.84;;;20.70;100.00
28312;BME280;15572;48.810;9.148;2023-08-20T04:44:04;98477.88;;;20.63;100.00
28312;BME280;15572;48.810;9.148;2023-08-20T04:49:02;98490.41;;;20.53;100.00
28312;BME280;15572;48.810;9.148;2023-08-20T04:53:58;98493.06;;;20.48;100.00
28312;BME280;15572;48.810;9.148;2023-08-20T04:58:55;98502.41;;;20.47;100.00
28312;BME280;15572;48.810;9.148;2023-08-20T05:03:51;98503.31;;;20.53;100.00
28312;BME280;15572;48.810;9.148;2023-08-20T05:08:49;98509.34;;;20.50;100.00
28312;BME280;15572;48.810;9.148;2023-08-20T05:13:47;98497.88;;;20.58;100.00
28312;BME280;15572;48.810;9.148;2023-08-20T05:18:44;98471.69;;;20.72;100.00
28312;BME280;15572;48.810;9.148;2023-08-20T05:23:40;98467.47;;;20.86;100.00
28312;BME280;15572;48.810;9.148;2023-08-20T05:28:38;98495.22;;;21.07;100.00
28312;BME280;15572;48.810;9.148;2023-08-20T05:33:34;98503.09;;;21.15;100.00
28312;BME280;15572;48.810;9.148;2023-08-20T05:38:31;98500.50;;;21.30;100.00
28312;BME280;15572;48.810;9.148;2023-08-20T05:43:27;98500.56;;;21.35;100.00
28312;BME280;15572;48.810;9.148;2023-08-20T05:48:25;98523.72;;;21.39;100.00
28312;BME280;15572;48.810;9.148;2023-08-20T05:53:22;98512.50;;;21.46;100.00
28312;BME280;15572;48.810;9.148;2023-08-20T05:58:18;98512.97;;;21.64;100.00
28312;BME280;15572;48.810;9.148;2023-08-20T06:03:15;98510.16;;;21.86;100.00
28312;BME280;15572;48.810;9.148;2023-08-20T06:08:12;98523.63;;;22.09;100.00
28312;BME280;15572;48.810;9.148;2023-08-20T06:13:09;98527.41;;;22.35;100.00
28312;BME280;15572;48.810;9.148;2023-08-20T06:18:06;98537.78;;;22.60;100.00
28312;BME280;15572;48.810;9.148;2023-08-20T06:23:03;98532.13;;;22.77;100.00
28312;BME280;15572;48.810;9.148;2023-08-20T06:28:01;98547.69;;;22.93;100.00
28312;BME280;15572;48.810;9.148;2023-08-20T06:32:57;98548.03;;;23.06;100.00
28312;BME280;15572;48.810;9.148;2023-08-20T06:37:53;98541.78;;;23.26;100.00
28312;BME280;15572;48.810;9.148;2023-08-20T06:42:50;98542.63;;;23.37;100.00
28312;BME280;15572;48.810;9.148;2023-08-20T06:47:48;98536.34;;;23.52;100.00
28312;BME280;15572;48.810;9.148;2023-08-20T06:52:44;98540.81;;;23.68;100.00
28312;BME280;15572;48.810;9.148;2023-08-20T06:57:41;98550.28;;;23.82;100.00
28312;BME280;15572;48.810;9.148;2023-08-20T07:02:37;98547.53;;;23.97;100.00
28312;BME280;15572;48.810;9.148;2023-08-20T07:07:35;98551.97;;;24.08;100.00
28312;BME280;15572;48.810;9.148;2023-08-20T07:12:31;98553.09;;;24.17;100.00
28312;BME280;15572;48.810;9.148;2023-08-20T07:17:28;98556.13;;;24.21;100.00
28312;BME280;15572;48.810;9.148;2023-08-20T07:22:24;98557.53;;;24.28;100.00
28312;BME280;15572;48.810;9.148;2023-08-20T07:27:22;98575.50;;;24.36;100.00
28312;BME280;15572;48.810;9.148;2023-08-20T07:32:19;98576.31;;;24.47;100.00
28312;BME280;15572;48.810;9.148;2023-08-20T07:37:15;98585.75;;;24.56;100.00
28312;BME280;15572;48.810;9.148;2023-08-20T07:42:12;98591.53;;;24.64;100.00
28312;BME280;15572;48.810;9.148;2023-08-20T07:47:10;98594.88;;;24.71;100.00
28312;BME280;15572;48.810;9.148;2023-08-20T07:52:07;98590.44;;;24.70;100.00
28312;BME280;15572;48.810;9.148;2023-08-20T07:57:04;98587.94;;;24.69;100.00
28312;BME280;15572;48.810;9.148;2023-08-20T08:02:00;98591.53;;;24.80;100.00
28312;BME280;15572;48.810;9.148;2023-08-20T08:06:59;98590.69;;;24.84;100.00
28312;BME280;15572;48.810;9.148;2023-08-20T08:11:56;98589.88;;;25.04;100.00
28312;BME280;15572;48.810;9.148;2023-08-20T08:16:53;98602.00;;;25.18;100.00
28312;BME280;15572;48.810;9.148;2023-08-20T08:21:50;98602.81;;;25.29;100.00
28312;BME280;15572;48.810;9.148;2023-08-20T08:26:48;98605.28;;;25.35;100.00
28312;BME280;15572;48.810;9.148;2023-08-20T08:31:44;98608.88;;;25.41;100.00
28312;BME280;15572;48.810;9.148;2023-08-20T08:36:41;98597.75;;;25.56;100.00
28312;BME280;15572;48.810;9.148;2023-08-20T08:41:38;98605.16;;;25.71;100.00
28312;BME280;15572;48.810;9.148;2023-08-20T08:46:38;98597.03;;;25.89;100.00
28312;BME280;15572;48.810;9.148;2023-08-20T08:51:36;98597.50;;;26.02;100.00
28312;BME280;15572;48.810;9.148;2023-08-20T08:56:32;98604.06;;;26.16;100.00
28312;BME280;15572;48.810;9.148;2023-08-20T09:01:29;98605.13;;;26.25;100.00
28312;BME280;15572;48.810;9.148;2023-08-20T09:06:29;98607.56;;;26.36;100.00
28312;BME280;15572;48.810;9.148;2023-08-20T09:11:40;98601.94;;;26.47;100.00
28312;BME280;15572;48.810;9.148;2023-08-20T09:16:37;98605.72;;;26.56;100.00
28312;BME280;15572;48.810;9.148;2023-08-20T09:21:34;98610.91;;;26.67;100.00
28312;BME280;15572;48.810;9.148;2023-08-20T09:26:31;98606.31;;;26.87;100.00
28312;BME280;15572;48.810;9.148;2023-08-20T09:31:37;98606.75;;;26.99;95.87
28312;BME280;15572;48.810;9.148;2023-08-20T09:36:35;98592.13;;;27.17;96.72
28312;BME280;15572;48.810;9.148;2023-08-20T09:41:33;98594.72;;;27.32;96.08
28312;BME280;15572;48.810;9.148;2023-08-20T09:46:34;98608.22;;;27.44;95.04
28312;BME280;15572;48.810;9.148;2023-08-20T09:51:34;98605.81;;;27.61;91.01
28312;BME280;15572;48.810;9.148;2023-08-20T09:56:38;98600.56;;;27.78;88.81
28312;BME280;15572;48.810;9.148;2023-08-20T10:01:35;98605.09;;;27.93;89.06
28312;BME280;15572;48.810;9.148;2023-08-20T10:06:32;98596.31;;;28.04;86.03
28312;BME280;15572;48.810;9.148;2023-08-20T10:11:31;98599.41;;;28.22;84.26
28312;BME280;15572;48.810;9.148;2023-08-20T10:16:28;98591.66;;;28.37;82.54
28312;BME280;15572;48.810;9.148;2023-08-20T10:21:25;98585.25;;;28.37;76.40
28312;BME280;15572;48.810;9.148;2023-08-20T10:26:23;98596.25;;;28.47;77.55
28312;BME280;15572;48.810;9.148;2023-08-20T10:31:25;98591.75;;;28.65;79.36
28312;BME280;15572;48.810;9.148;2023-08-20T10:36:23;98591.75;;;28.83;78.64
28312;BME280;15572;48.810;9.148;2023-08-20T10:41:26;98593.81;;;28.78;77.04
28312;BME280;15572;48.810;9.148;2023-08-20T10:46:26;98590.84;;;29.02;73.90
28312;BME280;15572;48.810;9.148;2023-08-20T10:51:28;98592.47;;;29.35;70.73
28312;BME280;15572;48.810;9.148;2023-08-20T10:56:37;98588.22;;;29.79;67.62
28312;BME280;15572;48.810;9.148;2023-08-20T11:01:36;98582.25;;;30.21;65.81
28312;BME280;15572;48.810;9.148;2023-08-20T11:06:33;98577.16;;;30.81;61.16
28312;BME280;15572;48.810;9.148;2023-08-20T11:11:30;98572.78;;;31.20;58.28
28312;BME280;15572;48.810;9.148;2023-08-20T11:16:26;98566.88;;;31.69;57.57
28312;BME280;15572;48.810;9.148;2023-08-20T11:21:25;98568.31;;;32.15;57.15
28312;BME280;15572;48.810;9.148;2023-08-20T11:26:21;98564.81;;;32.70;54.11
28312;BME280;15572;48.810;9.148;2023-08-20T11:31:19;98561.56;;;33.14;50.52
28312;BME280;15572;48.810;9.148;2023-08-20T11:36:15;98567.56;;;33.04;48.55
28312;BME280;15572;48.810;9.148;2023-08-20T11:41:14;98561.28;;;33.54;48.52
28312;BME280;15572;48.810;9.148;2023-08-20T11:46:13;98553.47;;;34.39;45.06
28312;BME280;15572;48.810;9.148;2023-08-20T11:51:10;98556.28;;;35.17;43.34
28312;BME280;15572;48.810;9.148;2023-08-20T11:56:06;98551.69;;;35.00;44.24
28312;BME280;15572;48.810;9.148;2023-08-20T12:01:08;98541.88;;;34.94;42.95
28312;BME280;15572;48.810;9.148;2023-08-20T12:06:17;98542.19;;;35.25;42.35
28312;BME280;15572;48.810;9.148;2023-08-20T12:11:14;98533.25;;;35.47;42.61
28312;BME280;15572;48.810;9.148;2023-08-20T12:16:12;98528.50;;;34.91;42.58
28312;BME280;15572;48.810;9.148;2023-08-20T12:21:09;98525.28;;;35.25;41.63
28312;BME280;15572;48.810;9.148;2023-08-20T12:26:05;98528.00;;;35.82;41.07
28312;BME280;15572;48.810;9.148;2023-08-20T12:31:03;98523.50;;;35.21;40.83
28312;BME280;15572;48.810;9.148;2023-08-20T12:36:00;98525.88;;;35.31;40.97
28312;BME280;15572;48.810;9.148;2023-08-20T12:40:57;98519.56;;;35.46;40.18
28312;BME280;15572;48.810;9.148;2023-08-20T12:45:53;98514.38;;;35.84;39.95
28312;BME280;15572;48.810;9.148;2023-08-20T12:50:50;98511.50;;;36.49;38.17
28312;BME280;15572;48.810;9.148;2023-08-20T12:55:48;98503.66;;;36.42;38.18
28312;BME280;15572;48.810;9.148;2023-08-20T13:00:44;98505.13;;;36.52;38.35
28312;BME280;15572;48.810;9.148;2023-08-20T13:05:41;98502.63;;;35.95;38.25
28312;BME280;15572;48.810;9.148;2023-08-20T13:10:39;98491.13;;;36.00;39.03
28312;BME280;15572;48.810;9.148;2023-08-20T13:15:38;98486.22;;;35.60;40.77
28312;BME280;15572;48.810;9.148;2023-08-20T13:20:34;98485.53;;;35.39;40.81
28312;BME280;15572;48.810;9.148;2023-08-20T13:25:31;98488.56;;;35.10;42.01
28312;BME280;15572;48.810;9.148;2023-08-20T13:30:27;98483.50;;;36.00;41.63
28312;BME280;15572;48.810;9.148;2023-08-20T13:35:25;98475.84;;;36.41;40.06
28312;BME280;15572;48.810;9.148;2023-08-20T13:40:22;98477.16;;;36.59;40.62
28312;BME280;15572;48.810;9.148;2023-08-20T13:45:18;98474.16;;;36.12;40.19
28312;BME280;15572;48.810;9.148;2023-08-20T13:50:15;98474.78;;;36.05;41.20
28312;BME280;15572;48.810;9.148;2023-08-20T13:55:13;98467.25;;;35.57;41.96
28312;BME280;15572;48.810;9.148;2023-08-20T14:00:11;98466.69;;;35.27;43.33
28312;BME280;15572;48.810;9.148;2023-08-20T14:05:08;98457.97;;;34.96;42.00
28312;BME280;15572;48.810;9.148;2023-08-20T14:10:06;98459.94;;;34.83;43.32
28312;BME280;15572;48.810;9.148;2023-08-20T14:15:05;98454.53;;;34.12;44.35
28312;BME280;15572;48.810;9.148;2023-08-20T14:20:01;98461.00;;;33.92;45.19
28312;BME280;15572;48.810;9.148;2023-08-20T14:24:58;98449.59;;;34.09;44.68
28312;BME280;15572;48.810;9.148;2023-08-20T14:29:55;98444.47;;;34.11;44.28
28312;BME280;15572;48.810;9.148;2023-08-20T14:34:53;98448.41;;;33.77;44.34
28312;BME280;15572;48.810;9.148;2023-08-20T14:39:49;98444.75;;;33.77;43.71
28312;BME280;15572;48.810;9.148;2023-08-20T14:44:46;98444.56;;;34.03;43.55
28312;BME280;15572;48.810;9.148;2023-08-20T14:49:42;98440.78;;;33.99;43.68
28312;BME280;15572;48.810;9.148;2023-08-20T14:54:40;98446.19;;;34.04;44.03
28312;BME280;15572;48.810;9.148;2023-08-20T14:59:37;98446.06;;;33.79;43.93
28312;BME280;15572;48.810;9.148;2023-08-20T15:04:33;98439.69;;;33.20;44.70
28312;BME280;15572;48.810;9.148;2023-08-20T15:09:30;98450.00;;;32.99;44.65
28312;BME280;15572;48.810;9.148;2023-08-20T15:14:27;98436.69;;;32.87;45.11
28312;BME280;15572;48.810;9.148;2023-08-20T15:19:24;98431.09;;;32.87;45.51
28312;BME280;15572;48.810;9.148;2023-08-20T15:24:20;98432.47;;;32.64;45.20
28312;BME280;15572;48.810;9.148;2023-08-20T15:29:17;98433.47;;;32.68;45.23
28312;BME280;15572;48.810;9.148;2023-08-20T15:34:15;98438.19;;;32.85;45.71
28312;BME280;15572;48.810;9.148;2023-08-20T15:39:12;98440.25;;;32.58;46.69
28312;BME280;15572;48.810;9.148;2023-08-20T15:44:08;98440.00;;;32.81;46.88
28312;BME280;15572;48.810;9.148;2023-08-20T15:49:05;98433.28;;;33.11;46.30
28312;BME280;15572;48.810;9.148;2023-08-20T15:54:04;98435.03;;;33.54;45.11
28312;BME280;15572;48.810;9.148;2023-08-20T15:59:01;98431.31;;;33.41;43.67
28312;BME280;15572;48.810;9.148;2023-08-20T16:03:57;98416.72;;;33.27;45.02
28312;BME280;15572;48.810;9.148;2023-08-20T16:08:54;98416.09;;;32.83;46.17
28312;BME280;15572;48.810;9.148;2023-08-20T16:13:52;98408.78;;;32.53;47.09
28312;BME280;15572;48.810;9.148;2023-08-20T16:18:48;98422.00;;;32.35;47.30
28312;BME280;15572;48.810;9.148;2023-08-20T16:23:45;98409.53;;;32.24;48.38
28312;BME280;15572;48.810;9.148;2023-08-20T16:28:41;98418.06;;;32.28;48.49
28312;BME280;15572;48.810;9.148;2023-08-20T16:33:39;98415.28;;;32.28;48.08
28312;BME280;15572;48.810;9.148;2023-08-20T16:38:36;98421.69;;;32.11;48.20
28312;BME280;15572;48.810;9.148;2023-08-20T16:43:32;98429.28;;;31.85;48.62
28312;BME280;15572;48.810;9.148;2023-08-20T16:48:29;98423.88;;;31.71;49.27
28312;BME280;15572;48.810;9.148;2023-08-20T16:53:28;98420.91;;;31.59;49.90
28312;BME280;15572;48.810;9.148;2023-08-20T16:58:24;98432.22;;;31.54;50.10
28312;BME280;15572;48.810;9.148;2023-08-20T17:03:21;98433.88;;;31.55;50.17
28312;BME280;15572;48.810;9.148;2023-08-20T17:08:19;98431.09;;;31.63;49.98
28312;BME280;15572;48.810;9.148;2023-08-20T17:13:16;98434.56;;;31.69;49.91
28312;BME280;15572;48.810;9.148;2023-08-20T17:18:13;98434.06;;;31.75;49.51
28312;BME280;15572;48.810;9.148;2023-08-20T17:23:09;98435.88;;;31.71;50.31
28312;BME280;15572;48.810;9.148;2023-08-20T17:28:06;98434.22;;;31.79;50.37
28312;BME280;15572;48.810;9.148;2023-08-20T17:33:04;98423.88;;;31.62;51.53
28312;BME280;15572;48.810;9.148;2023-08-20T17:38:03;98432.84;;;31.42;52.92
28312;BME280;15572;48.810;9.148;2023-08-20T17:43:00;98426.28;;;31.29;53.81
28312;BME280;15572;48.810;9.148;2023-08-20T17:47:56;98427.88;;;31.13;54.81
28312;BME280;15572;48.810;9.148;2023-08-20T17:52:54;98426.06;;;31.09;55.71
28312;BME280;15572;48.810;9.148;2023-08-20T17:57:50;98429.44;;;30.97;56.05
28312;BME280;15572;48.810;9.148;2023-08-20T18:02:47;98431.53;;;30.83;56.90
28312;BME280;15572;48.810;9.148;2023-08-20T18:07:43;98435.13;;;30.75;57.25
28312;BME280;15572;48.810;9.148;2023-08-20T18:12:41;98448.69;;;30.59;58.60
28312;BME280;15572;48.810;9.148;2023-08-20T18:17:38;98447.94;;;30.45;59.41
28312;BME280;15572;48.810;9.148;2023-08-20T18:22:34;98441.09;;;30.29;60.17
28312;BME280;15572;48.810;9.148;2023-08-20T18:27:31;98454.81;;;30.17;60.61
28312;BME280;15572;48.810;9.148;2023-08-20T18:32:29;98473.94;;;30.09;59.44
28312;BME280;15572;48.810;9.148;2023-08-20T18:37:25;98491.06;;;29.94;60.44
28312;BME280;15572;48.810;9.148;2023-08-20T18:42:22;98481.50;;;29.73;61.91
28312;BME280;15572;48.810;9.148;2023-08-20T18:47:18;98489.69;;;29.56;63.11
28312;BME280;15572;48.810;9.148;2023-08-20T18:52:16;98493.44;;;29.24;68.58
28312;BME280;15572;48.810;9.148;2023-08-20T18:57:12;98498.38;;;28.72;73.49
28312;BME280;15572;48.810;9.148;2023-08-20T19:02:11;98502.66;;;28.32;78.43
28312;BME280;15572;48.810;9.148;2023-08-20T19:07:07;98517.28;;;28.05;79.86
28312;BME280;15572;48.810;9.148;2023-08-20T19:12:06;98512.72;;;27.77;81.11
28312;BME280;15572;48.810;9.148;2023-08-20T19:17:02;98512.69;;;27.58;82.20
28312;BME280;15572;48.810;9.148;2023-08-20T19:21:59;98515.88;;;27.47;84.06
28312;BME280;15572;48.810;9.148;2023-08-20T19:26:55;98508.50;;;27.37;84.29
28312;BME280;15572;48.810;9.148;2023-08-20T19:31:53;98516.81;;;27.18;86.50
28312;BME280;15572;48.810;9.148;2023-08-20T19:36:50;98515.69;;;26.96;90.39
28312;BME280;15572;48.810;9.148;2023-08-20T19:41:46;98521.91;;;26.82;93.58
28312;BME280;15572;48.810;9.148;2023-08-20T19:46:43;98523.06;;;26.81;92.04
28312;BME280;15572;48.810;9.148;2023-08-20T19:51:41;98523.34;;;26.80;89.87
28312;BME280;15572;48.810;9.148;2023-08-20T19:56:38;98525.63;;;26.73;91.53
28312;BME280;15572;48.810;9.148;2023-08-20T20:01:44;98536.28;;;26.61;92.78
28312;BME280;15572;48.810;9.148;2023-08-20T20:06:43;98538.28;;;26.55;91.67
28312;BME280;15572;48.810;9.148;2023-08-20T20:11:39;98545.84;;;26.50;92.31
28312;BME280;15572;48.810;9.148;2023-08-20T20:16:36;98549.03;;;26.33;93.70
28312;BME280;15572;48.810;9.148;2023-08-20T20:21:32;98543.00;;;26.21;97.47
28312;BME280;15572;48.810;9.148;2023-08-20T20:26:30;98536.16;;;26.08;96.99
28312;BME280;15572;48.810;9.148;2023-08-20T20:31:26;98544.56;;;25.98;98.21
28312;BME280;15572;48.810;9.148;2023-08-20T20:36:23;98552.38;;;25.86;99.53
28312;BME280;15572;48.810;9.148;2023-08-20T20:41:19;98554.97;;;25.72;100.00
28312;BME280;15572;48.810;9.148;2023-08-20T20:46:17;98553.41;;;25.56;100.00
28312;BME280;15572;48.810;9.148;2023-08-20T20:51:14;98553.69;;;25.44;100.00
28312;BME280;15572;48.810;9.148;2023-08-20T20:56:10;98551.81;;;25.35;100.00
28312;BME280;15572;48.810;9.148;2023-08-20T21:01:07;98561.50;;;25.37;100.00
28312;BME280;15572;48.810;9.148;2023-08-20T21:06:06;98560.38;;;25.38;100.00
28312;BME280;15572;48.810;9.148;2023-08-20T21:11:02;98560.38;;;25.38;100.00
28312;BME280;15572;48.810;9.148;2023-08-20T21:15:59;98570.38;;;25.29;100.00
28312;BME280;15572;48.810;9.148;2023-08-20T21:20:55;98565.72;;;25.20;100.00
28312;BME280;15572;48.810;9.148;2023-08-20T21:25:53;98580.09;;;25.22;100.00
28312;BME280;15572;48.810;9.148;2023-08-20T21:30:49;98571.25;;;25.25;100.00
28312;BME280;15572;48.810;9.148;2023-08-20T21:35:46;98578.47;;;25.21;100.00
28312;BME280;15572;48.810;9.148;2023-08-20T21:40:42;98577.91;;;25.19;100.00
28312;BME280;15572;48.810;9.148;2023-08-20T21:45:40;98571.81;;;25.11;100.00
28312;BME280;15572;48.810;9.148;2023-08-20T21:50:37;98585.69;;;25.06;100.00
28312;BME280;15572;48.810;9.148;2023-08-20T21:55:33;98592.34;;;25.00;100.00
28312;BME280;15572;48.810;9.148;2023-08-20T22:00:30;98592.91;;;24.97;100.00
28312;BME280;15572;48.810;9.148;2023-08-20T22:05:28;98591.81;;;24.93;100.00
28312;BME280;15572;48.810;9.148;2023-08-20T22:10:24;98595.13;;;24.90;100.00
28312;BME280;15572;48.810;9.148;2023-08-20T22:15:21;98602.31;;;24.86;100.00
28312;BME280;15572;48.810;9.148;2023-08-20T22:20:18;98609.78;;;24.86;100.00
28312;BME280;15572;48.810;9.148;2023-08-20T22:25:16;98598.72;;;24.75;100.00
28312;BME280;15572;48.810;9.148;2023-08-20T22:30:12;98596.81;;;24.71;100.00
28312;BME280;15572;48.810;9.148;2023-08-20T22:35:09;98599.31;;;24.72;100.00
28312;BME280;15572;48.810;9.148;2023-08-20T22:40:07;98593.47;;;24.74;100.00
28312;BME280;15572;48.810;9.148;2023-08-20T22:45:05;98591.53;;;24.74;100.00
28312;BME280;15572;48.810;9.148;2023-08-20T22:50:02;98594.88;;;24.71;100.00
28312;BME280;15572;48.810;9.148;2023-08-20T22:54:59;98591.53;;;24.64;100.00
28312;BME280;15572;48.810;9.148;2023-08-20T22:59:56;98598.75;;;24.55;100.00
28312;BME280;15572;48.810;9.148;2023-08-20T23:04:53;98589.06;;;24.43;100.00
28312;BME280;15572;48.810;9.148;2023-08-20T23:09:50;98593.75;;;24.42;100.00
28312;BME280;15572;48.810;9.148;2023-08-20T23:14:47;98595.44;;;24.43;100.00
28312;BME280;15572;48.810;9.148;2023-08-20T23:19:43;98596.53;;;24.47;100.00
28312;BME280;15572;48.810;9.148;2023-08-20T23:24:42;98588.53;;;24.46;100.00
28312;BME280;15572;48.810;9.148;2023-08-20T23:29:39;98582.69;;;24.47;100.00
28312;BME280;15572;48.810;9.148;2023-08-20T23:34:35;98586.28;;;24.48;100.00
28312;BME280;15572;48.810;9.148;2023-08-20T23:39:31;98589.34;;;24.41;100.00
28312;BME280;15572;48.810;9.148;2023-08-20T23:44:29;98594.84;;;24.36;100.00
28312;BME280;15572;48.810;9.148;2023-08-20T23:49:26;98597.34;;;24.38;100.00
28312;BME280;15572;48.810;9.148;2023-08-20T23:54:22;98592.38;;;24.40;100.00
28312;BME280;15572;48.810;9.148;2023-08-20T23:59:19;98589.06;;;24.38;100.00
